臺北飛航情報區 - 海峽席

SPECI RCTP 240903Z 02011KT 5000 -RA SCT005 BKN008 BKN020 24/23 Q1011 NOSIG RMK A2986(Q)=

站台狀態:Online
最後更新:2020-09-24 17:00:02